Time;durP1;ratioP1;P1;durP2;ratioP2;P2;SDS_P1;SDS_P2;PMS_P1;PMS_P2;Temp;Humidity;BMP_temperature;BMP_pressure;BME280_temperature;BME280_humidity;BME280_pressure;Samples;Min_cycle;Max_cycle;Signal;HPM_P1;HPM_P2
2024/01/22 04:42:45;;;;;;;2.53;1.90;;;;;;;;;;5019327;28;20228;-77
2024/01/22 04:45:15;;;;;;;2.23;2.03;;;;;;;;;;5000950;28;20251;-78
2024/01/22 04:47:41;;;;;;;2.93;2.20;;;;;;;;;;5005448;28;20640;-78
2024/01/22 04:50:07;;;;;;;2.47;2.10;;;;;;;;;;4990726;28;20220;-76
2024/01/22 04:52:32;;;;;;;3.83;1.87;;;;;;;;;;4992886;28;20688;-76
2024/01/22 04:55:00;;;;;;;1.93;1.67;;;;;;;;;;4991564;28;20236;-77
2024/01/22 04:57:30;;;;;;;4.50;2.10;;;;;;;;;;5020455;28;20232;-79
2024/01/22 04:59:55;;;;;;;4.47;1.97;;;;;;;;;;4973980;28;20773;-77
2024/01/22 05:02:27;;;;;;;2.73;2.00;;;;;;;;;;4984710;28;20229;-75
2024/01/22 05:04:56;;;;;;;2.23;2.03;;;;;;;;;;4978806;28;20221;-77
2024/01/22 05:07:23;;;;;;;2.47;2.03;;;;;;;;;;4974657;28;20224;-76
2024/01/22 05:09:49;;;;;;;5.57;2.00;;;;;;;;;;4990365;28;20225;-77
2024/01/22 05:12:17;;;;;;;2.60;2.00;;;;;;;;;;4947839;28;20232;-78
2024/01/22 05:14:47;;;;;;;2.23;1.90;;;;;;;;;;4982503;28;20224;-77
2024/01/22 05:17:18;;;;;;;2.53;1.77;;;;;;;;;;4993558;28;20217;-76
2024/01/22 05:19:44;;;;;;;2.10;1.87;;;;;;;;;;4987993;28;20232;-77
2024/01/22 05:22:11;;;;;;;5.13;2.03;;;;;;;;;;4980871;28;20231;-77
2024/01/22 05:24:37;;;;;;;2.33;2.10;;;;;;;;;;4999304;28;20229;-78
2024/01/22 05:27:09;;;;;;;5.03;2.00;;;;;;;;;;4954355;28;20229;-78
2024/01/22 05:29:35;;;;;;;2.27;1.97;;;;;;;;;;5009424;28;20755;-78
2024/01/22 05:32:05;;;;;;;2.70;1.90;;;;;;;;;;5000324;28;20668;-76
2024/01/22 05:34:31;;;;;;;3.03;2.30;;;;;;;;;;4989548;28;20229;-76
2024/01/22 05:36:56;;;;;;;3.33;2.27;;;;;;;;;;4979717;28;20231;-75
2024/01/22 05:39:22;;;;;;;2.57;2.00;;;;;;;;;;4988886;28;20225;-76
2024/01/22 05:41:49;;;;;;;1.77;1.63;;;;;;;;;;4995660;28;20226;-76
2024/01/22 05:44:20;;;;;;;2.10;1.90;;;;;;;;;;5001826;28;20224;-76
2024/01/22 05:46:49;;;;;;;2.33;2.10;;;;;;;;;;4966112;28;20980;-76
2024/01/22 05:49:16;;;;;;;2.60;2.20;;;;;;;;;;4989713;28;20251;-77
2024/01/22 05:51:41;;;;;;;3.97;2.17;;;;;;;;;;5009912;28;20228;-77
2024/01/22 05:54:07;;;;;;;2.37;2.10;;;;;;;;;;4979774;28;20944;-76
2024/01/22 05:56:35;;;;;;;2.57;2.10;;;;;;;;;;4973108;28;20229;-77
2024/01/22 05:59:03;;;;;;;2.93;2.37;;;;;;;;;;5015464;28;20223;-79
2024/01/22 06:01:31;;;;;;;3.23;1.83;;;;;;;;;;4985481;28;20225;-77
2024/01/22 06:04:00;;;;;;;2.43;1.93;;;;;;;;;;4981207;28;20267;-76
2024/01/22 06:06:27;;;;;;;4.03;2.87;;;;;;;;;;4962752;28;20218;-76
2024/01/22 06:08:56;;;;;;;2.77;2.57;;;;;;;;;;4983800;28;20217;-79
2024/01/22 06:11:21;;;;;;;3.40;2.33;;;;;;;;;;4986248;28;20232;-76
2024/01/22 06:13:47;;;;;;;2.50;1.70;;;;;;;;;;4945689;28;20224;-76
2024/01/22 06:16:12;;;;;;;2.60;2.10;;;;;;;;;;4972997;28;20231;-77
2024/01/22 06:18:39;;;;;;;3.10;2.10;;;;;;;;;;4990314;28;20228;-77
2024/01/22 06:21:07;;;;;;;3.60;1.73;;;;;;;;;;4998547;28;20764;-76
2024/01/22 06:23:33;;;;;;;3.20;1.80;;;;;;;;;;4973956;28;20299;-77
2024/01/22 06:25:59;;;;;;;3.03;1.70;;;;;;;;;;4984606;28;20228;-76
2024/01/22 06:28:34;;;;;;;2.40;1.70;;;;;;;;;;4992386;28;20247;-76
2024/01/22 06:30:59;;;;;;;5.10;2.00;;;;;;;;;;4988511;28;20225;-78
2024/01/22 06:33:28;;;;;;;4.47;1.70;;;;;;;;;;5004354;28;20824;-75
2024/01/22 06:35:58;;;;;;;3.73;1.80;;;;;;;;;;4992683;28;20239;-79
2024/01/22 06:38:26;;;;;;;2.30;1.60;;;;;;;;;;4973211;28;20228;-76
2024/01/22 06:40:52;;;;;;;6.10;1.43;;;;;;;;;;4993538;28;20229;-77
2024/01/22 06:43:20;;;;;;;1.50;1.37;;;;;;;;;;4980376;28;20230;-76
2024/01/22 06:45:46;;;;;;;1.67;1.30;;;;;;;;;;5010977;28;21074;-77
2024/01/22 06:48:11;;;;;;;1.60;1.37;;;;;;;;;;4991951;28;20217;-76
2024/01/22 06:50:37;;;;;;;3.07;1.90;;;;;;;;;;4994033;28;20219;-76
2024/01/22 06:53:03;;;;;;;1.27;1.17;;;;;;;;;;4993914;28;20216;-78
2024/01/22 06:55:31;;;;;;;1.20;1.10;;;;;;;;;;5008022;28;20649;-77
2024/01/22 06:57:59;;;;;;;2.13;1.60;;;;;;;;;;4981047;28;20228;-76
2024/01/22 07:00:26;;;;;;;2.10;1.20;;;;;;;;;;4994762;28;20224;-77
2024/01/22 07:02:52;;;;;;;1.73;1.40;;;;;;;;;;4993215;28;20228;-77
2024/01/22 07:05:19;;;;;;;2.90;1.20;;;;;;;;;;4977008;28;20244;-75
2024/01/22 07:07:47;;;;;;;0.83;0.80;;;;;;;;;;4984693;28;20324;-77
2024/01/22 07:10:13;;;;;;;2.07;1.67;;;;;;;;;;4998922;28;20233;-77
2024/01/22 07:12:41;;;;;;;1.20;0.77;;;;;;;;;;5006947;28;20302;-78
2024/01/22 07:15:12;;;;;;;0.60;0.60;;;;;;;;;;4984829;28;20392;-77
2024/01/22 07:17:39;;;;;;;1.13;0.90;;;;;;;;;;4992917;28;20220;-77
2024/01/22 07:20:08;;;;;;;0.70;0.50;;;;;;;;;;4987208;28;20366;-76
2024/01/22 07:22:36;;;;;;;3.33;0.60;;;;;;;;;;4999430;28;20217;-76
2024/01/22 07:25:04;;;;;;;1.20;0.60;;;;;;;;;;4992757;28;20213;-78
2024/01/22 07:27:30;;;;;;;2.87;0.77;;;;;;;;;;4998522;28;20231;-76
2024/01/22 07:29:56;;;;;;;0.80;0.80;;;;;;;;;;5004695;28;20225;-77
2024/01/22 07:32:22;;;;;;;0.63;0.63;;;;;;;;;;4996688;28;20232;-76
2024/01/22 07:34:47;;;;;;;1.80;0.60;;;;;;;;;;4988587;28;20315;-78
2024/01/22 07:37:13;;;;;;;1.70;1.00;;;;;;;;;;4990249;28;20601;-76
2024/01/22 07:39:39;;;;;;;2.03;0.63;;;;;;;;;;4984504;28;20335;-77
2024/01/22 07:42:08;;;;;;;1.17;1.03;;;;;;;;;;5004209;28;20223;-76
2024/01/22 07:44:34;;;;;;;1.00;0.90;;;;;;;;;;5009634;28;20298;-79
2024/01/22 07:47:02;;;;;;;1.03;0.67;;;;;;;;;;4993370;28;20220;-76
2024/01/22 07:49:27;;;;;;;0.73;0.70;;;;;;;;;;5003907;28;20221;-76
2024/01/22 07:51:53;;;;;;;1.47;0.60;;;;;;;;;;5005343;28;20838;-78
2024/01/22 07:54:18;;;;;;;0.63;0.63;;;;;;;;;;5001692;28;20225;-77
2024/01/22 07:56:47;;;;;;;1.17;0.70;;;;;;;;;;4987552;28;20225;-79
2024/01/22 07:59:12;;;;;;;1.67;0.87;;;;;;;;;;4993530;28;20231;-76
2024/01/22 08:01:38;;;;;;;0.70;0.70;;;;;;;;;;4976737;28;20229;-77
2024/01/22 08:04:04;;;;;;;1.70;0.80;;;;;;;;;;4987686;28;20237;-78
2024/01/22 08:06:29;;;;;;;1.57;1.37;;;;;;;;;;4991526;28;20282;-78
2024/01/22 08:08:56;;;;;;;1.17;0.90;;;;;;;;;;5002822;28;20891;-78
2024/01/22 08:11:21;;;;;;;2.40;0.80;;;;;;;;;;5000855;28;20233;-77
2024/01/22 08:13:47;;;;;;;1.80;1.00;;;;;;;;;;4976868;28;20216;-79
2024/01/22 08:16:12;;;;;;;1.33;0.80;;;;;;;;;;5000715;28;20232;-77
2024/01/22 08:18:40;;;;;;;0.90;0.83;;;;;;;;;;4994529;28;20228;-77
2024/01/22 08:21:08;;;;;;;1.37;0.90;;;;;;;;;;4997044;28;20645;-78
2024/01/22 08:23:36;;;;;;;1.07;0.97;;;;;;;;;;4975689;28;20229;-79
2024/01/22 08:26:03;;;;;;;1.20;1.10;;;;;;;;;;4976916;28;20236;-78
2024/01/22 08:28:29;;;;;;;0.90;0.90;;;;;;;;;;4994179;28;20717;-77
2024/01/22 08:30:57;;;;;;;2.17;1.10;;;;;;;;;;5009227;28;20228;-77
2024/01/22 08:33:22;;;;;;;0.90;0.90;;;;;;;;;;4995319;28;20322;-77
2024/01/22 08:35:48;;;;;;;0.97;0.77;;;;;;;;;;4995941;28;20242;-79
2024/01/22 08:38:13;;;;;;;0.93;0.87;;;;;;;;;;4992833;28;20220;-77
2024/01/22 08:40:44;;;;;;;1.03;0.90;;;;;;;;;;4998002;28;20310;-78
2024/01/22 08:43:10;;;;;;;2.83;0.90;;;;;;;;;;4982994;28;20239;-76
2024/01/22 08:45:38;;;;;;;2.83;0.97;;;;;;;;;;4976143;28;20239;-77
2024/01/22 08:48:07;;;;;;;1.10;0.80;;;;;;;;;;4992350;28;20590;-79
2024/01/22 08:50:32;;;;;;;0.70;0.70;;;;;;;;;;4996115;28;20232;-78
2024/01/22 08:53:00;;;;;;;0.60;0.60;;;;;;;;;;5000184;28;20244;-77
2024/01/22 08:55:26;;;;;;;1.20;0.97;;;;;;;;;;4979569;28;20227;-77
2024/01/22 08:57:57;;;;;;;0.90;0.80;;;;;;;;;;4972301;28;20221;-80
2024/01/22 09:00:28;;;;;;;0.90;0.90;;;;;;;;;;4999166;28;20356;-76
2024/01/22 09:02:59;;;;;;;0.70;0.70;;;;;;;;;;4986205;28;20258;-78
2024/01/22 09:05:24;;;;;;;2.23;1.53;;;;;;;;;;5007460;28;20229;-77
2024/01/22 09:07:50;;;;;;;2.93;1.20;;;;;;;;;;5001150;28;20231;-77
2024/01/22 09:10:21;;;;;;;3.00;0.90;;;;;;;;;;4976803;28;20236;-77
2024/01/22 09:12:48;;;;;;;1.23;0.80;;;;;;;;;;5000946;28;20839;-78
2024/01/22 09:15:17;;;;;;;0.97;0.77;;;;;;;;;;4984346;28;20309;-78
2024/01/22 09:17:48;;;;;;;0.90;0.73;;;;;;;;;;4986269;28;21298;-77
2024/01/22 09:20:14;;;;;;;1.50;1.00;;;;;;;;;;5003132;28;20829;-77
2024/01/22 09:22:42;;;;;;;0.90;0.70;;;;;;;;;;5000963;28;20304;-78
2024/01/22 09:25:08;;;;;;;0.83;0.53;;;;;;;;;;4984670;28;20248;-79
2024/01/22 09:27:34;;;;;;;0.80;0.70;;;;;;;;;;5007177;28;20701;-79
2024/01/22 09:29:59;;;;;;;0.90;0.80;;;;;;;;;;4973602;28;20290;-78
2024/01/22 09:32:28;;;;;;;0.90;0.90;;;;;;;;;;4996929;28;20232;-76
2024/01/22 09:34:53;;;;;;;0.83;0.80;;;;;;;;;;4980733;28;20256;-78
2024/01/22 09:37:19;;;;;;;1.67;0.80;;;;;;;;;;4959910;28;20706;-79
2024/01/22 09:39:49;;;;;;;2.07;1.30;;;;;;;;;;5007398;28;20698;-79
2024/01/22 09:42:14;;;;;;;0.90;0.90;;;;;;;;;;5002882;28;20239;-77
2024/01/22 09:44:44;;;;;;;0.67;0.60;;;;;;;;;;4976213;28;20220;-78
2024/01/22 09:47:09;;;;;;;0.70;0.70;;;;;;;;;;4984001;28;20263;-78
2024/01/22 09:49:36;;;;;;;0.90;0.70;;;;;;;;;;4990251;28;20220;-77
2024/01/22 09:52:07;;;;;;;2.20;1.00;;;;;;;;;;5005091;28;20725;-78
2024/01/22 09:54:32;;;;;;;3.13;0.60;;;;;;;;;;4997076;28;20719;-76
2024/01/22 09:56:58;;;;;;;1.10;0.70;;;;;;;;;;4991569;28;20224;-77
2024/01/22 09:59:27;;;;;;;0.50;0.50;;;;;;;;;;5005059;28;20272;-76
2024/01/22 10:02:00;;;;;;;1.23;0.80;;;;;;;;;;4968860;28;20223;-77
2024/01/22 10:04:28;;;;;;;0.87;0.70;;;;;;;;;;4984159;28;20219;-78
2024/01/22 10:06:56;;;;;;;4.53;1.47;;;;;;;;;;5008314;28;20224;-77
2024/01/22 10:09:22;;;;;;;2.47;1.90;;;;;;;;;;4978881;28;20282;-77
2024/01/22 10:11:47;;;;;;;2.10;1.60;;;;;;;;;;5004145;28;20616;-78
2024/01/22 10:14:13;;;;;;;1.90;1.23;;;;;;;;;;4995902;28;20223;-77
2024/01/22 10:16:38;;;;;;;1.10;1.00;;;;;;;;;;4990708;28;20224;-79
2024/01/22 10:19:08;;;;;;;2.10;1.90;;;;;;;;;;4987372;28;20216;-79
2024/01/22 10:21:37;;;;;;;1.80;0.93;;;;;;;;;;4998439;28;20228;-76
2024/01/22 10:24:06;;;;;;;1.87;1.50;;;;;;;;;;4995757;28;20220;-78
2024/01/22 10:26:34;;;;;;;2.00;1.30;;;;;;;;;;4989248;28;20227;-76
2024/01/22 10:29:19;;;;;;;3.07;0.90;;;;;;;;;;4981198;28;20216;-78
2024/01/22 10:31:58;;;;;;;2.00;1.00;;;;;;;;;;4995007;28;20236;-79
2024/01/22 10:34:46;;;;;;;1.00;0.90;;;;;;;;;;4978750;28;20223;-78
2024/01/22 10:37:12;;;;;;;1.60;1.13;;;;;;;;;;4993823;28;20254;-78
2024/01/22 10:39:44;;;;;;;1.57;1.00;;;;;;;;;;5011323;28;20224;-79
2024/01/22 10:42:15;;;;;;;3.50;1.20;;;;;;;;;;5005678;28;20227;-76
2024/01/22 10:44:42;;;;;;;1.13;0.90;;;;;;;;;;4997710;28;20220;-77
2024/01/22 10:47:09;;;;;;;1.53;1.13;;;;;;;;;;4960856;28;20220;-78
2024/01/22 10:49:39;;;;;;;2.30;1.30;;;;;;;;;;4983554;28;20236;-78
2024/01/22 10:52:08;;;;;;;3.77;1.57;;;;;;;;;;4991501;28;20228;-77
2024/01/22 10:54:37;;;;;;;2.77;1.50;;;;;;;;;;4994649;28;20225;-76
2024/01/22 10:57:11;;;;;;;4.67;1.63;;;;;;;;;;5014204;28;20599;-77
2024/01/22 10:59:48;;;;;;;2.37;2.07;;;;;;;;;;4995000;28;20717;-77
2024/01/22 11:02:26;;;;;;;2.70;1.50;;;;;;;;;;5019252;28;20285;-77
2024/01/22 11:05:13;;;;;;;3.27;1.73;;;;;;;;;;4993684;28;20231;-77
2024/01/22 11:07:39;;;;;;;2.30;1.70;;;;;;;;;;4958458;28;20243;-76
2024/01/22 11:10:06;;;;;;;2.33;1.73;;;;;;;;;;4992853;28;20259;-78
2024/01/22 11:12:44;;;;;;;2.67;1.80;;;;;;;;;;4976236;28;20225;-77
2024/01/22 11:15:10;;;;;;;4.07;2.17;;;;;;;;;;4983345;28;20326;-78
2024/01/22 11:17:35;;;;;;;2.03;1.83;;;;;;;;;;5007144;28;20705;-75
2024/01/22 11:20:17;;;;;;;3.40;2.57;;;;;;;;;;5003325;28;20228;-75
2024/01/22 11:23:01;;;;;;;2.77;2.20;;;;;;;;;;5002693;28;20215;-76
2024/01/22 11:25:29;;;;;;;4.00;2.40;;;;;;;;;;4992539;28;20323;-76
2024/01/22 11:28:15;;;;;;;2.83;2.10;;;;;;;;;;4985441;28;20221;-79
2024/01/22 11:30:41;;;;;;;3.80;2.67;;;;;;;;;;5000042;28;20285;-76
2024/01/22 11:33:24;;;;;;;2.77;2.40;;;;;;;;;;5000708;28;20216;-77
2024/01/22 11:35:50;;;;;;;3.97;2.40;;;;;;;;;;4998840;28;20295;-76
2024/01/22 11:38:51;;;;;;;7.97;2.60;;;;;;;;;;5009650;28;20279;-78
2024/01/22 11:41:30;;;;;;;3.57;2.77;;;;;;;;;;4991375;28;20333;-78
2024/01/22 11:43:58;;;;;;;6.47;3.57;;;;;;;;;;4996242;28;20212;-76
2024/01/22 11:46:27;;;;;;;2.60;2.17;;;;;;;;;;4990436;28;20851;-77
2024/01/22 11:48:55;;;;;;;4.57;3.03;;;;;;;;;;4969125;28;20772;-76
2024/01/22 11:51:27;;;;;;;3.97;2.30;;;;;;;;;;5001178;28;20389;-78
2024/01/22 11:53:54;;;;;;;2.17;1.87;;;;;;;;;;4990916;28;20216;-76
2024/01/22 11:56:21;;;;;;;5.83;2.03;;;;;;;;;;4989330;28;20221;-75
2024/01/22 11:58:48;;;;;;;6.27;2.60;;;;;;;;;;4990363;28;20235;-77
2024/01/22 12:01:18;;;;;;;3.07;1.77;;;;;;;;;;4999877;28;20228;-76
2024/01/22 12:03:44;;;;;;;3.83;1.93;;;;;;;;;;5003466;28;20224;-77
2024/01/22 12:06:12;;;;;;;6.17;2.33;;;;;;;;;;4981443;28;20842;-78
2024/01/22 12:08:38;;;;;;;7.60;2.73;;;;;;;;;;4989443;28;20229;-77
2024/01/22 12:11:08;;;;;;;7.83;2.37;;;;;;;;;;5020276;28;20229;-78
2024/01/22 12:13:39;;;;;;;8.70;3.27;;;;;;;;;;4978021;28;20302;-76
2024/01/22 12:16:13;;;;;;;10.43;2.77;;;;;;;;;;4992001;28;20285;-77
2024/01/22 12:18:39;;;;;;;6.67;2.97;;;;;;;;;;4993661;28;20216;-76
2024/01/22 12:21:07;;;;;;;11.93;3.77;;;;;;;;;;4991475;28;20795;-77
2024/01/22 12:23:33;;;;;;;13.27;4.40;;;;;;;;;;4961497;28;20230;-76
2024/01/22 12:26:04;;;;;;;10.70;4.37;;;;;;;;;;4997298;28;20282;-76
2024/01/22 12:28:32;;;;;;;15.17;4.47;;;;;;;;;;5005664;28;20303;-76
2024/01/22 12:31:03;;;;;;;11.10;4.13;;;;;;;;;;4979778;28;20237;-75
2024/01/22 12:33:32;;;;;;;14.47;6.50;;;;;;;;;;5000754;28;20225;-76
2024/01/22 12:36:07;;;;;;;17.83;5.30;;;;;;;;;;4989598;28;20271;-76
2024/01/22 12:38:46;;;;;;;12.20;5.00;;;;;;;;;;4984673;28;20675;-76
2024/01/22 12:41:15;;;;;;;13.83;4.90;;;;;;;;;;5016762;28;20233;-76
2024/01/22 12:43:43;;;;;;;12.43;4.47;;;;;;;;;;4992653;28;20243;-76
2024/01/22 12:46:14;;;;;;;15.37;4.80;;;;;;;;;;5018868;28;20220;-76
2024/01/22 12:48:45;;;;;;;16.10;4.80;;;;;;;;;;4957473;28;20228;-75
2024/01/22 12:51:12;;;;;;;11.47;4.07;;;;;;;;;;4972077;28;20223;-77
2024/01/22 12:53:44;;;;;;;14.90;4.40;;;;;;;;;;4974527;28;20223;-77
2024/01/22 12:56:10;;;;;;;11.80;4.00;;;;;;;;;;4990925;28;20334;-76
2024/01/22 12:58:37;;;;;;;18.23;4.43;;;;;;;;;;4969868;28;20738;-76
2024/01/22 13:01:03;;;;;;;13.33;4.73;;;;;;;;;;4981697;28;20223;-77
2024/01/22 13:03:29;;;;;;;10.67;3.97;;;;;;;;;;4981336;28;20223;-76
2024/01/22 13:05:54;;;;;;;11.77;4.70;;;;;;;;;;4983711;28;20697;-76
2024/01/22 13:08:19;;;;;;;12.73;3.93;;;;;;;;;;4960252;28;20236;-77
2024/01/22 13:10:52;;;;;;;13.80;3.97;;;;;;;;;;5002476;28;20237;-77
2024/01/22 13:13:18;;;;;;;13.50;4.17;;;;;;;;;;5013305;28;20217;-77
2024/01/22 13:15:43;;;;;;;12.97;7.27;;;;;;;;;;4990434;28;20240;-78
2024/01/22 13:18:14;;;;;;;13.23;8.00;;;;;;;;;;4991801;28;20225;-76
2024/01/22 13:20:39;;;;;;;12.07;5.63;;;;;;;;;;4993788;28;20303;-77
2024/01/22 13:23:07;;;;;;;8.00;4.00;;;;;;;;;;4993316;28;20224;-76
2024/01/22 13:25:33;;;;;;;15.63;5.03;;;;;;;;;;5008132;28;20232;-77
2024/01/22 13:28:01;;;;;;;14.20;6.30;;;;;;;;;;5008682;28;20212;-77
2024/01/22 13:30:26;;;;;;;15.53;5.77;;;;;;;;;;4990209;28;20242;-76
2024/01/22 13:32:52;;;;;;;19.83;6.83;;;;;;;;;;5007449;28;20305;-76
2024/01/22 13:35:18;;;;;;;16.00;5.30;;;;;;;;;;4969592;28;20217;-77
2024/01/22 13:37:46;;;;;;;14.63;5.90;;;;;;;;;;4989865;28;21138;-77
2024/01/22 13:40:17;;;;;;;15.60;6.20;;;;;;;;;;4974765;28;20224;-78
2024/01/22 13:42:45;;;;;;;14.20;6.60;;;;;;;;;;5001489;28;20229;-78
2024/01/22 13:45:10;;;;;;;15.30;6.73;;;;;;;;;;4980178;28;20230;-78
2024/01/22 13:47:38;;;;;;;21.90;7.13;;;;;;;;;;4980108;28;20705;-78
2024/01/22 13:50:07;;;;;;;17.23;6.50;;;;;;;;;;4968728;28;20220;-77
2024/01/22 13:52:37;;;;;;;23.67;6.07;;;;;;;;;;5007380;28;20244;-77
2024/01/22 13:55:04;;;;;;;17.57;6.20;;;;;;;;;;4979624;28;20315;-77
2024/01/22 13:57:35;;;;;;;17.60;6.20;;;;;;;;;;5001792;28;20646;-78
2024/01/22 14:00:01;;;;;;;18.83;5.73;;;;;;;;;;4995878;28;20223;-77
2024/01/22 14:02:26;;;;;;;16.37;5.73;;;;;;;;;;4979920;28;20731;-79
2024/01/22 14:04:52;;;;;;;14.50;5.80;;;;;;;;;;5013426;28;20223;-77
2024/01/22 14:07:18;;;;;;;20.27;6.40;;;;;;;;;;5012173;28;20219;-78
2024/01/22 14:09:44;;;;;;;20.33;5.93;;;;;;;;;;4991114;28;20250;-78
2024/01/22 14:12:12;;;;;;;17.80;5.87;;;;;;;;;;5009055;28;20220;-77
2024/01/22 14:14:37;;;;;;;20.87;6.30;;;;;;;;;;5018393;28;20748;-77
2024/01/22 14:17:05;;;;;;;19.23;6.00;;;;;;;;;;5007721;28;20220;-77
2024/01/22 14:19:32;;;;;;;19.43;5.60;;;;;;;;;;4970439;28;20232;-77
2024/01/22 14:22:00;;;;;;;22.43;6.30;;;;;;;;;;4973108;28;20224;-77
2024/01/22 14:24:25;;;;;;;23.40;7.97;;;;;;;;;;4977108;28;20225;-78
2024/01/22 14:26:53;;;;;;;25.80;11.20;;;;;;;;;;4998389;28;20232;-78
2024/01/22 14:29:21;;;;;;;28.67;7.93;;;;;;;;;;4976186;28;20308;-77
2024/01/22 14:31:47;;;;;;;27.57;12.83;;;;;;;;;;4999419;28;20608;-77
2024/01/22 14:34:16;;;;;;;20.27;6.77;;;;;;;;;;4986370;28;20212;-77
2024/01/22 14:36:44;;;;;;;31.37;13.93;;;;;;;;;;4978341;28;20216;-76
2024/01/22 14:39:10;;;;;;;20.33;6.87;;;;;;;;;;4993011;28;20216;-76
2024/01/22 14:41:37;;;;;;;28.83;6.33;;;;;;;;;;4979438;28;20235;-76
2024/01/22 14:44:03;;;;;;;21.37;5.50;;;;;;;;;;4990112;28;20310;-78
2024/01/22 14:46:28;;;;;;;15.77;5.27;;;;;;;;;;4986177;28;20300;-78
2024/01/22 14:48:54;;;;;;;15.57;5.13;;;;;;;;;;4991624;28;20378;-78
2024/01/22 14:51:25;;;;;;;20.37;6.00;;;;;;;;;;5007058;28;20216;-77
2024/01/22 14:53:53;;;;;;;21.50;5.53;;;;;;;;;;5003560;28;20228;-78
2024/01/22 14:56:18;;;;;;;12.90;4.60;;;;;;;;;;5014034;28;20216;-78
2024/01/22 14:58:44;;;;;;;19.67;5.03;;;;;;;;;;4993444;28;20244;-78
2024/01/22 15:01:10;;;;;;;19.70;6.13;;;;;;;;;;5002939;28;21254;-77
2024/01/22 15:03:36;;;;;;;20.80;5.37;;;;;;;;;;4980823;28;20293;-78
2024/01/22 15:06:01;;;;;;;19.37;5.70;;;;;;;;;;4997903;28;20714;-80
2024/01/22 15:08:27;;;;;;;20.17;5.30;;;;;;;;;;5003593;28;20239;-78
2024/01/22 15:10:52;;;;;;;18.10;5.17;;;;;;;;;;4991496;28;20251;-77
2024/01/22 15:13:18;;;;;;;22.33;6.13;;;;;;;;;;5010527;28;20885;-77
2024/01/22 15:15:46;;;;;;;21.83;6.67;;;;;;;;;;5010317;28;20616;-77
2024/01/22 15:18:14;;;;;;;21.33;5.80;;;;;;;;;;4993591;28;20739;-77
2024/01/22 15:20:42;;;;;;;15.47;5.20;;;;;;;;;;4982276;28;21037;-77
2024/01/22 15:23:09;;;;;;;21.43;5.50;;;;;;;;;;5006007;28;20244;-78
2024/01/22 15:25:38;;;;;;;24.80;6.70;;;;;;;;;;4996872;28;20216;-77
2024/01/22 15:28:03;;;;;;;17.43;6.60;;;;;;;;;;4988034;28;20589;-78
2024/01/22 15:30:29;;;;;;;20.53;6.23;;;;;;;;;;4988806;28;20756;-80
2024/01/22 15:32:57;;;;;;;21.67;6.07;;;;;;;;;;4994155;28;20232;-79
2024/01/22 15:35:25;;;;;;;24.23;6.37;;;;;;;;;;4978377;28;20232;-78
2024/01/22 15:37:50;;;;;;;17.13;5.70;;;;;;;;;;4975419;28;20224;-79
2024/01/22 15:40:16;;;;;;;18.43;5.03;;;;;;;;;;5012833;28;20239;-78
2024/01/22 15:42:42;;;;;;;20.47;6.57;;;;;;;;;;4984394;28;20633;-78
2024/01/22 15:45:08;;;;;;;21.03;6.53;;;;;;;;;;5003886;28;20220;-78
2024/01/22 15:47:34;;;;;;;16.97;6.40;;;;;;;;;;4999138;28;20224;-77
2024/01/22 15:49:59;;;;;;;20.23;7.67;;;;;;;;;;5016818;28;20709;-79
2024/01/22 15:52:25;;;;;;;21.73;6.20;;;;;;;;;;4997798;28;20763;-78
2024/01/22 15:54:50;;;;;;;21.87;6.43;;;;;;;;;;4993844;28;20224;-79
2024/01/22 15:57:16;;;;;;;19.80;6.13;;;;;;;;;;4973481;28;20216;-78
2024/01/22 15:59:44;;;;;;;13.50;5.33;;;;;;;;;;4993256;28;20823;-78
2024/01/22 16:02:09;;;;;;;18.03;7.27;;;;;;;;;;5012419;28;20261;-78
2024/01/22 16:04:37;;;;;;;19.70;6.77;;;;;;;;;;4991662;28;20227;-79
2024/01/22 16:07:03;;;;;;;20.63;5.73;;;;;;;;;;4995743;28;20244;-79
2024/01/22 16:09:30;;;;;;;17.43;5.07;;;;;;;;;;4970522;28;20363;-78
2024/01/22 16:11:56;;;;;;;19.87;6.03;;;;;;;;;;4995298;28;20259;-77
2024/01/22 16:14:22;;;;;;;21.40;7.07;;;;;;;;;;5003165;28;20216;-80
2024/01/22 16:16:47;;;;;;;19.17;6.87;;;;;;;;;;4987853;28;20225;-78
2024/01/22 16:19:13;;;;;;;22.10;8.03;;;;;;;;;;4973737;28;20678;-78
2024/01/22 16:21:41;;;;;;;19.47;6.17;;;;;;;;;;4994983;28;20225;-77
2024/01/22 16:24:09;;;;;;;15.93;5.30;;;;;;;;;;4986189;28;20282;-78
2024/01/22 16:26:37;;;;;;;15.80;7.10;;;;;;;;;;4975430;28;20497;-77
2024/01/22 16:29:03;;;;;;;19.87;6.53;;;;;;;;;;4993570;28;20823;-79
2024/01/22 16:31:31;;;;;;;23.27;7.33;;;;;;;;;;4986120;28;20225;-77
2024/01/22 16:33:56;;;;;;;21.43;8.67;;;;;;;;;;4991594;28;20307;-79
2024/01/22 16:36:25;;;;;;;16.03;6.77;;;;;;;;;;4985245;28;20550;-78
2024/01/22 16:38:50;;;;;;;22.23;7.63;;;;;;;;;;4994369;28;20221;-78
2024/01/22 16:41:18;;;;;;;15.67;5.83;;;;;;;;;;4997889;28;20215;-78
2024/01/22 16:43:48;;;;;;;20.03;5.77;;;;;;;;;;5001518;28;20331;-78
2024/01/22 16:46:18;;;;;;;18.47;5.73;;;;;;;;;;5030975;28;20227;-78
2024/01/22 16:48:43;;;;;;;16.63;5.60;;;;;;;;;;4982293;28;20229;-78
2024/01/22 16:51:11;;;;;;;18.27;6.57;;;;;;;;;;4981862;28;20223;-78
2024/01/22 16:53:39;;;;;;;19.67;5.73;;;;;;;;;;4989477;28;20242;-78
2024/01/22 16:56:05;;;;;;;13.40;5.63;;;;;;;;;;4995159;28;20286;-79
2024/01/22 16:58:31;;;;;;;20.83;8.33;;;;;;;;;;4996143;28;20220;-78
2024/01/22 17:00:57;;;;;;;12.50;5.13;;;;;;;;;;4981293;28;20225;-85
2024/01/22 17:03:25;;;;;;;15.33;5.47;;;;;;;;;;4974891;28;21188;-84
2024/01/22 17:05:53;;;;;;;14.63;5.30;;;;;;;;;;4986872;28;20288;-84
2024/01/22 17:08:22;;;;;;;19.20;5.67;;;;;;;;;;4985290;28;20217;-85
2024/01/22 17:10:52;;;;;;;13.67;5.47;;;;;;;;;;5016990;28;20244;-85
2024/01/22 17:13:25;;;;;;;21.07;6.03;;;;;;;;;;4984797;28;20226;-84
2024/01/22 17:15:53;;;;;;;19.67;4.73;;;;;;;;;;4979216;28;20819;-87
2024/01/22 17:18:21;;;;;;;17.03;5.10;;;;;;;;;;4981446;28;20297;-87
2024/01/22 17:20:49;;;;;;;24.37;5.27;;;;;;;;;;4988559;28;20219;-86
2024/01/22 17:23:15;;;;;;;20.57;4.77;;;;;;;;;;5005059;28;20231;-87
2024/01/22 17:25:43;;;;;;;14.13;4.97;;;;;;;;;;4996242;28;20307;-86
2024/01/22 17:28:12;;;;;;;15.90;5.20;;;;;;;;;;4986834;28;20275;-86
2024/01/22 17:30:37;;;;;;;9.83;3.80;;;;;;;;;;4968696;28;20219;-85
2024/01/22 17:33:05;;;;;;;10.77;4.10;;;;;;;;;;4986033;28;20243;-83
2024/01/22 17:35:33;;;;;;;13.13;4.23;;;;;;;;;;4983314;28;20215;-84
2024/01/22 17:38:01;;;;;;;11.87;4.00;;;;;;;;;;4987825;28;20283;-87
2024/01/22 17:40:29;;;;;;;14.63;4.50;;;;;;;;;;4978543;28;20225;-87
2024/01/22 17:42:55;;;;;;;12.53;4.03;;;;;;;;;;4988638;28;20236;-85
2024/01/22 17:45:23;;;;;;;11.97;4.17;;;;;;;;;;4992695;28;20223;-87
2024/01/22 17:47:51;;;;;;;15.80;4.07;;;;;;;;;;4999739;28;20224;-85
2024/01/22 17:50:17;;;;;;;11.37;4.07;;;;;;;;;;4994692;28;20224;-85
2024/01/22 17:52:42;;;;;;;12.13;4.43;;;;;;;;;;4986469;28;20713;-86
2024/01/22 17:55:08;;;;;;;8.97;4.23;;;;;;;;;;4986397;28;20222;-86
2024/01/22 17:57:38;;;;;;;14.00;4.23;;;;;;;;;;4982043;28;20240;-84
2024/01/22 18:00:06;;;;;;;14.77;4.43;;;;;;;;;;4999700;28;20220;-85
2024/01/22 18:02:33;;;;;;;14.80;4.80;;;;;;;;;;4991743;28;20247;-86
2024/01/22 18:05:01;;;;;;;11.30;3.97;;;;;;;;;;4986296;28;20238;-85
2024/01/22 18:07:28;;;;;;;10.97;4.13;;;;;;;;;;4989384;28;20220;-85
2024/01/22 18:09:54;;;;;;;14.17;4.37;;;;;;;;;;4997373;28;20229;-85
2024/01/22 18:12:24;;;;;;;21.30;7.23;;;;;;;;;;4989751;28;20223;-85
2024/01/22 18:14:52;;;;;;;16.33;7.87;;;;;;;;;;5000181;28;20228;-84
2024/01/22 18:17:23;;;;;;;14.07;5.60;;;;;;;;;;4992493;28;20335;-83
2024/01/22 18:19:48;;;;;;;16.57;6.27;;;;;;;;;;5000637;28;20278;-87
2024/01/22 18:22:14;;;;;;;15.90;5.33;;;;;;;;;;5006358;28;20660;-83
2024/01/22 18:24:42;;;;;;;13.23;4.50;;;;;;;;;;5010007;28;20227;-86
2024/01/22 18:27:07;;;;;;;24.90;5.20;;;;;;;;;;5002000;28;20254;-85
2024/01/22 18:29:37;;;;;;;12.17;4.57;;;;;;;;;;5028814;28;20292;-84
2024/01/22 18:32:06;;;;;;;16.57;4.77;;;;;;;;;;4987844;28;20229;-84
2024/01/22 18:34:34;;;;;;;21.70;5.43;;;;;;;;;;4987982;28;20303;-85
2024/01/22 18:37:00;;;;;;;14.50;5.10;;;;;;;;;;4976946;28;20220;-85
2024/01/22 18:39:25;;;;;;;23.70;5.27;;;;;;;;;;4993677;28;20216;-85
2024/01/22 18:41:51;;;;;;;13.47;4.77;;;;;;;;;;5020526;28;20287;-81
2024/01/22 18:44:18;;;;;;;18.80;4.63;;;;;;;;;;5016128;28;20716;-84
2024/01/22 18:46:46;;;;;;;19.00;4.47;;;;;;;;;;5011539;28;20310;-80
2024/01/22 18:49:12;;;;;;;17.33;4.97;;;;;;;;;;5030911;28;20228;-84
2024/01/22 18:51:39;;;;;;;18.30;5.07;;;;;;;;;;4997085;28;20228;-82
2024/01/22 18:54:07;;;;;;;11.73;4.50;;;;;;;;;;5014222;28;20228;-86
2024/01/22 18:56:33;;;;;;;11.47;4.23;;;;;;;;;;4981114;28;20248;-86
2024/01/22 18:59:00;;;;;;;19.90;5.23;;;;;;;;;;4995899;28;20215;-85
2024/01/22 19:01:28;;;;;;;19.57;5.00;;;;;;;;;;5012950;28;20794;-84
2024/01/22 19:03:54;;;;;;;13.97;4.83;;;;;;;;;;4967529;28;20216;-86
2024/01/22 19:06:19;;;;;;;17.27;4.97;;;;;;;;;;5003344;28;20751;-87
2024/01/22 19:08:48;;;;;;;15.87;5.03;;;;;;;;;;4999020;28;20227;-85
2024/01/22 19:11:17;;;;;;;18.77;5.10;;;;;;;;;;4987213;28;20233;-87
2024/01/22 19:13:43;;;;;;;13.60;4.43;;;;;;;;;;4996853;28;20217;-83
2024/01/22 19:16:13;;;;;;;18.17;4.90;;;;;;;;;;5002681;28;20226;-85
2024/01/22 19:18:41;;;;;;;19.40;5.03;;;;;;;;;;4976014;28;20224;-85
2024/01/22 19:21:18;;;;;;;21.07;4.77;;;;;;;;;;4993392;28;20229;-85